Time,TemperatureF,DewpointF,PressureIn,WindDirection,WindDirectionDegrees,WindSpeedMPH,WindSpeedGustMPH,Humidity,HourlyPrecipIn,Conditions,Clouds,dailyrainin,SoftwareType,DateUTC
2017-02-25 00:03:00,60.3,57.4,29.45,SW,220,4.0,8.0,90,0.07,,---,0.01,VWS V15.00,2017-02-25 05:03:00,
2017-02-25 00:08:00,60.2,57.3,29.47,SW,234,0.0,8.0,90,0.08,,---,0.02,VWS V15.00,2017-02-25 05:08:00,
2017-02-25 00:13:00,60.2,57.6,29.48,SSE,167,0.0,9.0,91,0.08,,---,0.02,VWS V15.00,2017-02-25 05:13:00,
2017-02-25 00:18:00,60.2,57.6,29.48,South,178,7.0,9.0,91,0.10,,---,0.04,VWS V15.00,2017-02-25 05:18:00,
2017-02-25 00:23:00,60.2,57.9,29.49,SSW,201,6.0,9.0,92,0.11,,---,0.05,VWS V15.00,2017-02-25 05:23:00,
2017-02-25 00:28:00,60.2,57.9,29.49,South,183,1.0,4.0,92,0.06,,---,0.06,VWS V15.00,2017-02-25 05:28:00,
2017-02-25 00:33:00,60.2,57.9,29.49,WNW,296,0.0,6.0,92,0.08,,---,0.08,VWS V15.00,2017-02-25 05:33:00,
2017-02-25 00:38:00,60.1,58.1,29.49,WNW,285,12.0,18.0,93,0.10,,---,0.10,VWS V15.00,2017-02-25 05:38:00,
2017-02-25 00:43:00,59.2,56.9,29.49,WNW,297,13.0,20.0,92,0.10,,---,0.10,VWS V15.00,2017-02-25 05:43:00,
2017-02-25 00:48:00,58.4,56.1,29.50,SW,232,7.0,20.0,92,0.11,,---,0.11,VWS V15.00,2017-02-25 05:48:00,
2017-02-25 00:53:00,57.9,55.9,29.49,WSW,252,1.0,20.0,93,0.11,,---,0.11,VWS V15.00,2017-02-25 05:53:00,
2017-02-25 00:59:00,57.6,55.6,29.49,WSW,247,1.0,8.0,93,0.12,,---,0.12,VWS V15.00,2017-02-25 05:59:00,
2017-02-25 01:04:00,57.4,55.4,29.50,WSW,250,4.0,9.0,93,0.12,,---,0.12,VWS V15.00,2017-02-25 06:04:00,
2017-02-25 01:09:00,57.4,55.4,29.50,West,272,7.0,12.0,93,0.12,,---,0.12,VWS V15.00,2017-02-25 06:09:00,
2017-02-25 01:14:00,57.3,55.6,29.50,WNW,282,4.0,12.0,94,0.12,,---,0.12,VWS V15.00,2017-02-25 06:14:00,
2017-02-25 01:19:00,57.3,55.6,29.50,WNW,285,4.0,12.0,94,0.12,,---,0.12,VWS V15.00,2017-02-25 06:19:00,
2017-02-25 01:24:00,57.3,55.6,29.49,West,281,3.0,12.0,94,0.12,,---,0.12,VWS V15.00,2017-02-25 06:24:00,
2017-02-25 01:29:00,57.3,55.6,29.49,West,260,0.0,6.0,94,0.07,,---,0.12,VWS V15.00,2017-02-25 06:29:00,
2017-02-25 01:34:00,57.2,55.5,29.49,WSW,243,0.0,8.0,94,0.07,,---,0.12,VWS V15.00,2017-02-25 06:34:00,
2017-02-25 01:39:00,57.2,55.5,29.49,WSW,242,0.0,8.0,94,0.07,,---,0.12,VWS V15.00,2017-02-25 06:39:00,
2017-02-25 01:44:00,57.1,55.4,29.48,WSW,242,0.0,8.0,94,0.07,,---,0.12,VWS V15.00,2017-02-25 06:44:00,
2017-02-25 01:49:00,57.0,55.3,29.49,WSW,242,0.0,8.0,94,0.07,,---,0.12,VWS V15.00,2017-02-25 06:49:00,
2017-02-25 01:54:00,56.8,55.1,29.49,WSW,238,1.0,8.0,94,0.07,,---,0.12,VWS V15.00,2017-02-25 06:54:00,
2017-02-25 01:59:00,56.6,54.9,29.49,SW,236,0.0,3.0,94,0.00,,---,0.12,VWS V15.00,2017-02-25 06:59:00,
2017-02-25 02:04:00,56.3,54.3,29.50,WNW,303,1.0,12.0,93,0.00,,---,0.12,VWS V15.00,2017-02-25 07:04:00,
2017-02-25 02:09:00,56.0,54.0,29.50,West,276,6.0,12.0,93,0.00,,---,0.12,VWS V15.00,2017-02-25 07:09:00,
2017-02-25 02:14:00,55.6,53.3,29.50,West,273,3.0,17.0,92,0.00,,---,0.12,VWS V15.00,2017-02-25 07:14:00,
2017-02-25 02:19:00,55.4,52.8,29.49,West,276,3.0,17.0,91,0.00,,---,0.12,VWS V15.00,2017-02-25 07:19:00,
2017-02-25 02:24:00,55.2,52.3,29.50,West,276,4.0,17.0,90,0.00,,---,0.12,VWS V15.00,2017-02-25 07:24:00,
2017-02-25 02:29:00,55.1,51.9,29.50,WNW,290,0.0,8.0,89,0.00,,---,0.12,VWS V15.00,2017-02-25 07:29:00,
2017-02-25 02:34:00,55.0,51.8,29.50,West,267,1.0,8.0,89,0.00,,---,0.12,VWS V15.00,2017-02-25 07:34:00,
2017-02-25 02:39:00,54.4,50.9,29.50,West,277,7.0,15.0,88,0.00,,---,0.12,VWS V15.00,2017-02-25 07:39:00,
2017-02-25 02:44:00,53.7,49.9,29.51,West,274,8.0,18.0,87,0.00,,---,0.12,VWS V15.00,2017-02-25 07:44:00,
2017-02-25 02:54:00,51.7,48.0,29.51,WNW,290,3.0,18.0,87,0.00,,---,0.12,VWS V15.00,2017-02-25 07:54:00,
2017-02-25 02:59:00,51.4,48.0,29.51,WSW,252,5.0,18.0,88,0.00,,---,0.12,VWS V15.00,2017-02-25 07:59:00,
2017-02-25 03:04:00,51.4,48.3,29.51,West,270,4.0,18.0,89,0.00,,---,0.12,VWS V15.00,2017-02-25 08:04:00,
2017-02-25 03:09:00,51.2,48.1,29.51,West,263,4.0,18.0,89,0.00,,---,0.12,VWS V15.00,2017-02-25 08:09:00,
2017-02-25 03:14:00,51.1,48.0,29.50,West,264,6.0,18.0,89,0.00,,---,0.12,VWS V15.00,2017-02-25 08:14:00,
2017-02-25 03:20:00,50.7,47.3,29.52,WSW,245,7.0,18.0,88,0.00,,---,0.12,VWS V15.00,2017-02-25 08:20:00,
2017-02-25 03:25:00,50.4,47.0,29.52,WNW,293,11.0,18.0,88,0.00,,---,0.12,VWS V15.00,2017-02-25 08:25:00,
2017-02-25 03:30:00,50.2,46.8,29.52,West,261,4.0,14.0,88,0.00,,---,0.12,VWS V15.00,2017-02-25 08:30:00,
2017-02-25 03:35:00,50.0,46.6,29.52,West,277,7.0,14.0,88,0.00,,---,0.12,VWS V15.00,2017-02-25 08:35:00,
2017-02-25 03:40:00,49.9,46.5,29.51,WSW,244,7.0,14.0,88,0.00,,---,0.12,VWS V15.00,2017-02-25 08:40:00,
2017-02-25 03:45:00,49.8,46.7,29.51,WSW,253,8.0,14.0,89,0.00,,---,0.12,VWS V15.00,2017-02-25 08:45:00,
2017-02-25 03:50:00,49.7,46.6,29.51,WSW,237,0.0,14.0,89,0.00,,---,0.12,VWS V15.00,2017-02-25 08:50:00,
2017-02-25 03:55:00,49.6,46.5,29.52,West,270,3.0,14.0,89,0.00,,---,0.12,VWS V15.00,2017-02-25 08:55:00,
2017-02-25 04:00:00,49.5,46.4,29.52,WSW,257,1.0,6.0,89,0.00,,---,0.12,VWS V15.00,2017-02-25 09:00:00,
2017-02-25 04:05:00,49.4,46.3,29.52,SSW,213,7.0,11.0,89,0.00,,---,0.12,VWS V15.00,2017-02-25 09:05:00,
2017-02-25 04:10:00,49.2,46.1,29.53,West,269,1.0,11.0,89,0.00,,---,0.12,VWS V15.00,2017-02-25 09:10:00,
2017-02-25 04:15:00,49.0,45.6,29.53,West,267,7.0,11.0,88,0.00,,---,0.12,VWS V15.00,2017-02-25 09:15:00,
2017-02-25 04:20:00,48.8,45.4,29.53,West,267,2.0,11.0,88,0.00,,---,0.12,VWS V15.00,2017-02-25 09:20:00,
2017-02-25 04:25:00,48.6,44.9,29.53,SW,231,2.0,11.0,87,0.00,,---,0.12,VWS V15.00,2017-02-25 09:25:00,
2017-02-25 04:30:00,48.6,44.9,29.53,SW,231,2.0,3.0,87,0.00,,---,0.12,VWS V15.00,2017-02-25 09:30:00,
2017-02-25 04:35:00,48.5,44.8,29.52,WSW,252,4.0,10.0,87,0.00,,---,0.12,VWS V15.00,2017-02-25 09:35:00,
2017-02-25 04:40:00,48.3,44.3,29.53,WNW,291,4.0,10.0,86,0.00,,---,0.12,VWS V15.00,2017-02-25 09:40:00,
2017-02-25 04:45:00,48.2,43.9,29.52,WSW,256,2.0,12.0,85,0.00,,---,0.12,VWS V15.00,2017-02-25 09:45:00,
2017-02-25 04:50:00,47.9,43.6,29.53,WSW,255,5.0,12.0,85,0.00,,---,0.12,VWS V15.00,2017-02-25 09:50:00,
2017-02-25 04:55:00,47.5,43.2,29.54,West,259,4.0,12.0,85,0.00,,---,0.12,VWS V15.00,2017-02-25 09:55:00,
2017-02-25 05:00:00,47.4,43.4,29.54,West,273,2.0,10.0,86,0.00,,---,0.12,VWS V15.00,2017-02-25 10:00:00,
2017-02-25 05:05:00,47.2,43.2,29.53,WSW,255,3.0,11.0,86,0.00,,---,0.12,VWS V15.00,2017-02-25 10:05:00,
2017-02-25 05:10:00,46.9,42.6,29.53,WSW,251,0.0,11.0,85,0.00,,---,0.12,VWS V15.00,2017-02-25 10:10:00,
2017-02-25 05:15:00,46.7,42.4,29.54,WSW,250,9.0,11.0,85,0.00,,---,0.12,VWS V15.00,2017-02-25 10:15:00,
2017-02-25 05:20:00,46.6,42.3,29.54,WSW,253,4.0,11.0,85,0.00,,---,0.12,VWS V15.00,2017-02-25 10:20:00,
2017-02-25 05:25:00,46.4,41.8,29.54,WSW,246,5.0,11.0,84,0.00,,---,0.12,VWS V15.00,2017-02-25 10:25:00,
2017-02-25 05:30:00,46.3,42.0,29.53,WSW,252,2.0,7.0,85,0.00,,---,0.12,VWS V15.00,2017-02-25 10:30:00,
2017-02-25 05:35:00,46.1,41.5,29.54,WSW,258,2.0,9.0,84,0.00,,---,0.12,VWS V15.00,2017-02-25 10:35:00,
2017-02-25 05:40:00,46.1,41.5,29.53,WSW,254,2.0,9.0,84,0.00,,---,0.12,VWS V15.00,2017-02-25 10:40:00,
2017-02-25 05:45:00,46.0,41.4,29.53,WSW,250,2.0,9.0,84,0.00,,---,0.12,VWS V15.00,2017-02-25 10:45:00,
2017-02-25 05:50:00,45.8,41.2,29.53,WSW,242,2.0,9.0,84,0.00,,---,0.12,VWS V15.00,2017-02-25 10:50:00,
2017-02-25 05:55:00,45.5,41.3,29.53,WSW,242,0.0,9.0,85,0.00,,---,0.12,VWS V15.00,2017-02-25 10:55:00,
2017-02-25 06:00:00,45.3,41.1,29.53,WSW,242,0.0,2.0,85,0.00,,---,0.12,VWS V15.00,2017-02-25 11:00:00,
2017-02-25 06:05:00,45.1,40.9,29.53,SSW,200,1.0,6.0,85,0.00,,---,0.12,VWS V15.00,2017-02-25 11:05:00,
2017-02-25 06:10:00,45.0,40.8,29.53,WSW,256,1.0,7.0,85,0.00,,---,0.12,VWS V15.00,2017-02-25 11:10:00,
2017-02-25 06:15:00,44.8,40.3,29.53,WSW,250,0.0,7.0,84,0.00,,---,0.12,VWS V15.00,2017-02-25 11:15:00,
2017-02-25 06:20:00,44.7,40.2,29.54,WSW,250,2.0,7.0,84,0.00,,---,0.12,VWS V15.00,2017-02-25 11:20:00,
2017-02-25 06:25:00,44.6,39.8,29.54,WSW,239,0.0,7.0,83,0.00,,---,0.12,VWS V15.00,2017-02-25 11:25:00,
2017-02-25 06:30:00,44.5,39.7,29.53,SW,231,1.0,7.0,83,0.00,,---,0.12,VWS V15.00,2017-02-25 11:30:00,
2017-02-25 06:35:00,44.4,39.6,29.53,WSW,250,0.0,7.0,83,0.00,,---,0.12,VWS V15.00,2017-02-25 11:35:00,
2017-02-25 06:40:00,44.5,39.4,29.53,WSW,250,4.0,7.0,82,0.00,,---,0.12,VWS V15.00,2017-02-25 11:40:00,
2017-02-25 06:46:00,44.4,38.9,29.53,SW,232,2.0,7.0,81,0.00,,---,0.12,VWS V15.00,2017-02-25 11:46:00,
2017-02-25 06:51:00,44.4,38.9,29.53,WSW,257,0.0,7.0,81,0.00,,---,0.12,VWS V15.00,2017-02-25 11:51:00,
2017-02-25 06:56:00,44.3,38.8,29.53,West,265,3.0,7.0,81,0.00,,---,0.12,VWS V15.00,2017-02-25 11:56:00,
2017-02-25 07:01:00,44.2,38.8,29.53,SW,227,0.0,5.0,81,0.00,,---,0.12,VWS V15.00,2017-02-25 12:01:00,
2017-02-25 07:06:00,44.1,38.7,29.53,WSW,237,3.0,7.0,81,0.00,,---,0.12,VWS V15.00,2017-02-25 12:06:00,
2017-02-25 07:11:00,44.1,38.7,29.53,WSW,250,0.0,7.0,81,0.00,,---,0.12,VWS V15.00,2017-02-25 12:11:00,
2017-02-25 07:16:00,44.0,38.5,29.53,West,269,2.0,7.0,81,0.00,,---,0.12,VWS V15.00,2017-02-25 12:16:00,
2017-02-25 07:21:00,44.0,38.5,29.53,WSW,254,2.0,7.0,81,0.00,,---,0.12,VWS V15.00,2017-02-25 12:21:00,
2017-02-25 07:26:00,44.0,38.2,29.54,SW,224,5.0,7.0,80,0.00,,---,0.12,VWS V15.00,2017-02-25 12:26:00,
2017-02-25 07:31:00,44.1,38.3,29.54,SW,224,0.0,6.0,80,0.00,,---,0.12,VWS V15.00,2017-02-25 12:31:00,
2017-02-25 07:36:00,44.1,38.3,29.55,WSW,248,2.0,10.0,80,0.00,,---,0.12,VWS V15.00,2017-02-25 12:36:00,
2017-02-25 07:41:00,44.2,38.4,29.55,SSE,168,5.0,10.0,80,0.00,,---,0.12,VWS V15.00,2017-02-25 12:41:00,
2017-02-25 07:46:00,44.3,38.8,29.55,WSW,252,3.0,10.0,81,0.00,,---,0.12,VWS V15.00,2017-02-25 12:46:00,
2017-02-25 07:51:00,44.4,38.9,29.56,South,179,6.0,10.0,81,0.00,,---,0.12,VWS V15.00,2017-02-25 12:51:00,
2017-02-25 07:56:00,44.4,38.6,29.56,SW,222,3.0,10.0,80,0.00,,---,0.12,VWS V15.00,2017-02-25 12:56:00,
2017-02-25 08:01:00,44.5,38.7,29.56,South,177,4.0,9.0,80,0.00,,---,0.12,VWS V15.00,2017-02-25 13:01:00,
2017-02-25 08:06:00,44.5,38.7,29.56,WSW,258,6.0,9.0,80,0.00,,---,0.12,VWS V15.00,2017-02-25 13:06:00,
2017-02-25 08:11:00,44.5,38.7,29.57,WSW,239,2.0,10.0,80,0.00,,---,0.12,VWS V15.00,2017-02-25 13:11:00,
2017-02-25 08:16:00,44.4,38.6,29.57,WSW,240,6.0,12.0,80,0.00,,---,0.12,VWS V15.00,2017-02-25 13:16:00,
2017-02-25 08:21:00,44.3,38.2,29.57,SW,216,4.0,12.0,79,0.00,,---,0.12,VWS V15.00,2017-02-25 13:21:00,
2017-02-25 08:26:00,44.2,38.1,29.57,WSW,242,3.0,4.0,79,0.00,,---,0.12,VWS V15.00,2017-02-25 13:26:00,
2017-02-25 08:31:00,44.1,37.4,29.57,WSW,239,4.0,14.0,77,0.00,,---,0.12,VWS V15.00,2017-02-25 13:31:00,
2017-02-25 08:36:00,43.9,36.5,29.57,West,269,10.0,20.0,75,0.00,,---,0.12,VWS V15.00,2017-02-25 13:36:00,
2017-02-25 08:41:00,44.0,36.3,29.56,West,262,3.0,20.0,74,0.00,,---,0.12,VWS V15.00,2017-02-25 13:41:00,
2017-02-25 08:46:00,44.3,36.5,29.56,SW,219,4.0,20.0,74,0.00,,---,0.12,VWS V15.00,2017-02-25 13:46:00,
2017-02-25 08:51:00,44.4,36.7,29.56,West,263,8.0,20.0,74,0.00,,---,0.12,VWS V15.00,2017-02-25 13:51:00,
2017-02-25 08:56:00,44.7,36.9,29.57,West,273,2.0,7.0,74,0.00,,---,0.12,VWS V15.00,2017-02-25 13:56:00,
2017-02-25 09:01:00,45.0,36.9,29.57,West,269,5.0,8.0,73,0.00,,---,0.12,VWS V15.00,2017-02-25 14:01:00,
2017-02-25 09:06:00,45.0,36.5,29.57,West,262,3.0,11.0,72,0.00,,---,0.12,VWS V15.00,2017-02-25 14:06:00,
2017-02-25 09:11:00,45.5,37.0,29.57,West,274,3.0,11.0,72,0.00,,---,0.12,VWS V15.00,2017-02-25 14:11:00,
2017-02-25 09:16:00,45.5,36.7,29.57,WSW,239,2.0,11.0,71,0.00,,---,0.12,VWS V15.00,2017-02-25 14:16:00,
2017-02-25 09:21:00,45.5,36.7,29.57,WSW,251,4.0,16.0,71,0.00,,---,0.12,VWS V15.00,2017-02-25 14:21:00,
2017-02-25 09:26:00,45.1,36.6,29.57,WSW,256,8.0,9.0,72,0.00,,---,0.12,VWS V15.00,2017-02-25 14:26:00,
2017-02-25 09:31:00,45.2,36.7,29.57,West,269,2.0,10.0,72,0.00,,---,0.12,VWS V15.00,2017-02-25 14:31:00,
2017-02-25 09:36:00,45.2,36.7,29.57,West,259,1.0,12.0,72,0.00,,---,0.12,VWS V15.00,2017-02-25 14:36:00,
2017-02-25 09:41:00,44.9,36.4,29.57,WSW,249,10.0,12.0,72,0.00,,---,0.12,VWS V15.00,2017-02-25 14:41:00,
2017-02-25 09:46:00,44.6,36.5,29.57,SW,227,10.0,14.0,73,0.00,,---,0.12,VWS V15.00,2017-02-25 14:46:00,
2017-02-25 09:51:00,44.4,36.3,29.57,SW,236,3.0,15.0,73,0.00,,---,0.12,VWS V15.00,2017-02-25 14:51:00,
2017-02-25 09:56:00,44.4,36.7,29.57,SSW,200,3.0,3.0,74,0.00,,---,0.12,VWS V15.00,2017-02-25 14:56:00,
2017-02-25 10:01:00,44.4,36.7,29.57,WSW,247,4.0,17.0,74,0.00,,---,0.12,VWS V15.00,2017-02-25 15:01:00,
2017-02-25 10:06:00,44.4,36.7,29.57,SSE,161,8.0,17.0,74,0.00,,---,0.12,VWS V15.00,2017-02-25 15:06:00,
2017-02-25 10:11:00,44.4,36.7,29.57,West,264,0.0,17.0,74,0.00,,---,0.12,VWS V15.00,2017-02-25 15:11:00,
2017-02-25 10:17:00,44.3,36.9,29.58,WSW,238,13.0,17.0,75,0.00,,---,0.12,VWS V15.00,2017-02-25 15:17:00,
2017-02-25 10:22:00,43.9,36.2,29.58,West,259,3.0,17.0,74,0.00,,---,0.12,VWS V15.00,2017-02-25 15:22:00,
2017-02-25 10:27:00,43.6,36.2,29.58,WSW,241,7.0,11.0,75,0.00,,---,0.12,VWS V15.00,2017-02-25 15:27:00,
2017-02-25 10:32:00,43.3,35.9,29.58,WSW,256,6.0,18.0,75,0.00,,---,0.12,VWS V15.00,2017-02-25 15:32:00,
2017-02-25 10:37:00,43.5,36.1,29.58,SSW,210,8.0,18.0,75,0.00,,---,0.12,VWS V15.00,2017-02-25 15:37:00,
2017-02-25 10:42:00,44.0,35.9,29.58,West,277,2.0,21.0,73,0.00,,---,0.12,VWS V15.00,2017-02-25 15:42:00,
2017-02-25 10:47:00,44.4,36.3,29.58,WNW,291,8.0,21.0,73,0.00,,---,0.12,VWS V15.00,2017-02-25 15:47:00,
2017-02-25 10:52:00,43.8,35.7,29.59,WNW,292,16.0,21.0,73,0.00,,---,0.12,VWS V15.00,2017-02-25 15:52:00,
2017-02-25 10:57:00,42.5,35.8,29.60,West,259,7.0,16.0,77,0.00,,---,0.12,VWS V15.00,2017-02-25 15:57:00,
2017-02-25 11:02:00,41.9,35.9,29.60,SSW,209,9.0,16.0,79,0.00,,---,0.12,VWS V15.00,2017-02-25 16:02:00,
2017-02-25 11:07:00,41.7,35.7,29.60,West,267,6.0,17.0,79,0.00,,---,0.12,VWS V15.00,2017-02-25 16:07:00,
2017-02-25 11:12:00,41.7,35.4,29.61,East,98,4.0,19.0,78,0.00,,---,0.12,VWS V15.00,2017-02-25 16:12:00,
2017-02-25 11:17:00,41.8,34.5,29.61,West,265,3.0,19.0,75,0.00,,---,0.12,VWS V15.00,2017-02-25 16:17:00,
2017-02-25 11:22:00,41.2,34.2,29.62,WNW,290,15.0,29.0,76,0.00,,---,0.12,VWS V15.00,2017-02-25 16:22:00,
2017-02-25 11:27:00,39.7,33.7,29.62,WNW,284,15.0,16.0,79,0.00,,---,0.12,VWS V15.00,2017-02-25 16:27:00,
2017-02-25 11:32:00,38.8,32.9,29.63,WSW,250,12.0,19.0,79,0.00,,---,0.12,VWS V15.00,2017-02-25 16:32:00,
2017-02-25 11:37:00,38.4,32.8,29.63,WSW,241,6.0,19.0,80,0.00,,---,0.12,VWS V15.00,2017-02-25 16:37:00,
2017-02-25 11:42:00,38.4,33.1,29.63,WSW,255,14.0,19.0,81,0.00,,---,0.12,VWS V15.00,2017-02-25 16:42:00,
2017-02-25 11:47:00,38.3,33.0,29.63,SW,234,2.0,19.0,81,0.00,,---,0.12,VWS V15.00,2017-02-25 16:47:00,
2017-02-25 11:52:00,38.6,33.3,29.64,WSW,249,5.0,19.0,81,0.00,,---,0.12,VWS V15.00,2017-02-25 16:52:00,
2017-02-25 11:57:00,38.9,33.3,29.64,West,277,5.0,12.0,80,0.00,,---,0.12,VWS V15.00,2017-02-25 16:57:00,
2017-02-25 12:02:00,39.6,33.6,29.64,WSW,246,3.0,16.0,79,0.00,,---,0.12,VWS V15.00,2017-02-25 17:02:00,
2017-02-25 12:07:00,40.1,33.8,29.64,WSW,244,6.0,16.0,78,0.00,,---,0.12,VWS V15.00,2017-02-25 17:07:00,
2017-02-25 12:12:00,40.0,33.7,29.64,West,267,4.0,16.0,78,0.00,,---,0.12,VWS V15.00,2017-02-25 17:12:00,
2017-02-25 12:17:00,39.7,33.1,29.64,West,263,7.0,20.0,77,0.00,,---,0.12,VWS V15.00,2017-02-25 17:17:00,
2017-02-25 12:22:00,39.4,33.1,29.65,WSW,245,4.0,20.0,78,0.00,,---,0.12,VWS V15.00,2017-02-25 17:22:00,
2017-02-25 12:27:00,39.3,33.0,29.65,WNW,292,11.0,11.0,78,0.00,,---,0.12,VWS V15.00,2017-02-25 17:27:00,
2017-02-25 12:32:00,39.5,33.2,29.65,SW,235,11.0,14.0,78,0.00,,---,0.12,VWS V15.00,2017-02-25 17:32:00,
2017-02-25 12:37:00,39.7,32.8,29.64,WSW,258,5.0,14.0,76,0.00,,---,0.12,VWS V15.00,2017-02-25 17:37:00,
2017-02-25 12:42:00,39.7,32.4,29.65,West,272,7.0,17.0,75,0.00,,---,0.12,VWS V15.00,2017-02-25 17:42:00,
2017-02-25 12:47:00,39.6,32.0,29.65,WSW,250,7.0,17.0,74,0.00,,---,0.12,VWS V15.00,2017-02-25 17:47:00,
2017-02-25 12:52:00,39.5,32.2,29.65,WSW,238,11.0,17.0,75,0.00,,---,0.12,VWS V15.00,2017-02-25 17:52:00,
2017-02-25 12:58:00,39.3,32.0,29.65,WNW,303,10.0,17.0,75,0.00,,---,0.12,VWS V15.00,2017-02-25 17:58:00,
2017-02-25 13:03:00,39.2,32.3,29.66,WNW,290,11.0,23.0,76,0.00,,---,0.12,VWS V15.00,2017-02-25 18:03:00,
2017-02-25 13:08:00,38.9,32.3,29.66,WNW,283,6.0,23.0,77,0.00,,---,0.12,VWS V15.00,2017-02-25 18:08:00,
2017-02-25 13:13:00,38.8,32.2,29.66,West,279,9.0,23.0,77,0.00,,---,0.12,VWS V15.00,2017-02-25 18:13:00,
2017-02-25 13:18:00,38.9,32.0,29.66,WSW,256,8.0,23.0,76,0.00,,---,0.12,VWS V15.00,2017-02-25 18:18:00,
2017-02-25 13:23:00,38.9,32.0,29.67,WNW,298,11.0,23.0,76,0.00,,---,0.12,VWS V15.00,2017-02-25 18:23:00,
2017-02-25 13:28:00,38.8,31.9,29.67,West,259,14.0,15.0,76,0.00,,---,0.12,VWS V15.00,2017-02-25 18:28:00,
2017-02-25 13:33:00,38.6,31.0,29.68,WSW,256,6.0,19.0,74,0.00,,---,0.12,VWS V15.00,2017-02-25 18:33:00,
2017-02-25 13:38:00,38.7,31.1,29.67,WNW,282,19.0,21.0,74,0.00,,---,0.12,VWS V15.00,2017-02-25 18:38:00,
2017-02-25 13:43:00,38.7,30.1,29.68,WNW,292,6.0,24.0,71,0.00,,---,0.12,VWS V15.00,2017-02-25 18:43:00,
2017-02-25 13:48:00,38.8,30.2,29.68,WSW,246,8.0,24.0,71,0.00,,---,0.12,VWS V15.00,2017-02-25 18:48:00,
2017-02-25 13:53:00,38.8,29.9,29.68,WSW,255,10.0,24.0,70,0.00,,---,0.12,VWS V15.00,2017-02-25 18:53:00,
2017-02-25 13:58:00,38.6,30.0,29.69,West,277,11.0,19.0,71,0.00,,---,0.12,VWS V15.00,2017-02-25 18:58:00,
2017-02-25 14:03:00,38.0,29.5,29.69,NW,309,9.0,22.0,71,0.00,,---,0.12,VWS V15.00,2017-02-25 19:03:00,
2017-02-25 14:08:00,37.6,29.4,29.69,West,259,7.0,22.0,72,0.00,,---,0.12,VWS V15.00,2017-02-25 19:08:00,
2017-02-25 14:13:00,37.3,29.5,29.69,West,261,14.0,22.0,73,0.00,,---,0.12,VWS V15.00,2017-02-25 19:13:00,
2017-02-25 14:18:00,37.2,29.4,29.70,WSW,254,15.0,22.0,73,0.00,,---,0.12,VWS V15.00,2017-02-25 19:18:00,
2017-02-25 14:23:00,37.0,29.2,29.70,WSW,257,6.0,24.0,73,0.00,,---,0.12,VWS V15.00,2017-02-25 19:23:00,
2017-02-25 14:28:00,36.9,29.1,29.70,SW,217,10.0,19.0,73,0.00,,---,0.12,VWS V15.00,2017-02-25 19:28:00,
2017-02-25 14:33:00,36.8,29.0,29.71,West,270,8.0,22.0,73,0.00,,---,0.12,VWS V15.00,2017-02-25 19:33:00,
2017-02-25 14:38:00,36.9,29.1,29.70,West,259,6.0,22.0,73,0.00,,---,0.12,VWS V15.00,2017-02-25 19:38:00,
2017-02-25 14:43:00,37.0,28.8,29.71,West,273,15.0,22.0,72,0.00,,---,0.12,VWS V15.00,2017-02-25 19:43:00,
2017-02-25 14:48:00,37.1,28.6,29.71,SW,232,9.0,22.0,71,0.00,,---,0.12,VWS V15.00,2017-02-25 19:48:00,
2017-02-25 14:53:00,37.0,29.2,29.72,West,281,13.0,22.0,73,0.00,,---,0.12,VWS V15.00,2017-02-25 19:53:00,
2017-02-25 14:58:00,36.3,29.1,29.73,West,267,8.0,19.0,75,0.00,,---,0.12,VWS V15.00,2017-02-25 19:58:00,
2017-02-25 15:03:00,35.7,29.2,29.73,West,266,14.0,21.0,77,0.00,,---,0.12,VWS V15.00,2017-02-25 20:03:00,
2017-02-25 15:08:00,35.4,28.9,29.73,NW,325,11.0,21.0,77,0.00,,---,0.12,VWS V15.00,2017-02-25 20:08:00,
2017-02-25 15:13:00,35.2,29.0,29.74,West,266,6.0,23.0,78,0.00,,---,0.12,VWS V15.00,2017-02-25 20:13:00,
2017-02-25 15:18:00,35.0,28.9,29.74,WNW,284,19.0,23.0,78,0.00,,---,0.12,VWS V15.00,2017-02-25 20:18:00,
2017-02-25 15:23:00,34.5,28.4,29.74,West,279,12.0,23.0,78,0.00,,---,0.12,VWS V15.00,2017-02-25 20:23:00,
2017-02-25 15:28:00,34.4,28.0,29.75,WSW,251,6.0,15.0,77,0.00,,---,0.12,VWS V15.00,2017-02-25 20:28:00,
2017-02-25 15:33:00,34.4,27.3,29.75,West,261,12.0,18.0,75,0.00,,---,0.12,VWS V15.00,2017-02-25 20:33:00,
2017-02-25 15:38:00,34.4,27.0,29.75,West,281,3.0,18.0,74,0.00,,---,0.12,VWS V15.00,2017-02-25 20:38:00,
2017-02-25 15:43:00,34.4,27.3,29.76,West,277,11.0,22.0,75,0.00,,---,0.12,VWS V15.00,2017-02-25 20:43:00,
2017-02-25 15:48:00,34.1,27.3,29.76,WNW,283,11.0,22.0,76,0.00,,---,0.12,VWS V15.00,2017-02-25 20:48:00,
2017-02-25 15:53:00,33.8,27.4,29.76,WNW,290,11.0,22.0,77,0.00,,---,0.12,VWS V15.00,2017-02-25 20:53:00,
2017-02-25 15:58:00,33.4,27.0,29.77,West,259,6.0,16.0,77,0.00,,---,0.12,VWS V15.00,2017-02-25 20:58:00,
2017-02-25 16:03:00,33.2,26.8,29.77,West,269,10.0,16.0,77,0.00,,---,0.12,VWS V15.00,2017-02-25 21:03:00,
2017-02-25 16:08:00,33.1,26.7,29.77,WSW,255,6.0,18.0,77,0.00,,---,0.12,VWS V15.00,2017-02-25 21:08:00,
2017-02-25 16:13:00,33.0,26.6,29.78,WNW,286,15.0,21.0,77,0.00,,---,0.12,VWS V15.00,2017-02-25 21:13:00,
2017-02-25 16:18:00,33.0,26.3,29.78,West,263,6.0,24.0,76,0.00,,---,0.12,VWS V15.00,2017-02-25 21:18:00,
2017-02-25 16:23:00,33.0,26.3,29.78,West,263,12.0,24.0,76,0.00,,---,0.12,VWS V15.00,2017-02-25 21:23:00,
2017-02-25 16:28:00,32.9,25.9,29.79,WSW,252,6.0,22.0,75,0.00,,---,0.12,VWS V15.00,2017-02-25 21:28:00,
2017-02-25 16:34:00,32.9,25.9,29.79,West,260,6.0,22.0,75,0.00,,---,0.12,VWS V15.00,2017-02-25 21:34:00,
2017-02-25 16:39:00,32.8,26.1,29.79,West,275,7.0,24.0,76,0.00,,---,0.12,VWS V15.00,2017-02-25 21:39:00,
2017-02-25 16:44:00,32.8,26.1,29.80,SW,232,15.0,24.0,76,0.00,,---,0.12,VWS V15.00,2017-02-25 21:44:00,
2017-02-25 16:49:00,32.8,25.4,29.79,SW,215,3.0,24.0,74,0.00,,---,0.12,VWS V15.00,2017-02-25 21:49:00,
2017-02-25 16:54:00,32.8,25.1,29.80,SW,236,12.0,24.0,73,0.00,,---,0.12,VWS V15.00,2017-02-25 21:54:00,
2017-02-25 16:59:00,32.8,25.4,29.80,West,267,5.0,20.0,74,0.00,,---,0.12,VWS V15.00,2017-02-25 21:59:00,
2017-02-25 17:04:00,32.8,25.4,29.80,WSW,240,7.0,20.0,74,0.00,,---,0.12,VWS V15.00,2017-02-25 22:04:00,
2017-02-25 17:09:00,32.9,25.5,29.80,SW,227,4.0,20.0,74,0.00,,---,0.12,VWS V15.00,2017-02-25 22:09:00,
2017-02-25 17:14:00,32.7,25.3,29.80,WNW,302,10.0,20.0,74,0.00,,---,0.12,VWS V15.00,2017-02-25 22:14:00,
2017-02-25 17:19:00,32.6,24.9,29.81,WNW,284,14.0,20.0,73,0.00,,---,0.12,VWS V15.00,2017-02-25 22:19:00,
2017-02-25 17:24:00,32.6,25.2,29.81,NW,313,7.0,20.0,74,0.00,,---,0.12,VWS V15.00,2017-02-25 22:24:00,
2017-02-25 17:29:00,32.6,24.9,29.81,SSW,207,8.0,20.0,73,0.00,,---,0.12,VWS V15.00,2017-02-25 22:29:00,
2017-02-25 17:34:00,32.5,24.8,29.82,West,268,7.0,20.0,73,0.00,,---,0.12,VWS V15.00,2017-02-25 22:34:00,
2017-02-25 17:39:00,32.4,24.7,29.82,WNW,284,13.0,24.0,73,0.00,,---,0.12,VWS V15.00,2017-02-25 22:39:00,
2017-02-25 17:44:00,32.3,25.0,29.83,West,275,6.0,24.0,74,0.00,,---,0.12,VWS V15.00,2017-02-25 22:44:00,
2017-02-25 17:49:00,32.3,25.0,29.83,WNW,292,9.0,24.0,74,0.00,,---,0.12,VWS V15.00,2017-02-25 22:49:00,
2017-02-25 17:54:00,32.2,24.9,29.84,WSW,253,9.0,24.0,74,0.00,,---,0.12,VWS V15.00,2017-02-25 22:54:00,
2017-02-25 17:59:00,32.0,24.3,29.83,West,278,8.0,31.0,73,0.00,,---,0.12,VWS V15.00,2017-02-25 22:59:00,
2017-02-25 18:04:00,31.9,24.2,29.84,WSW,258,7.0,31.0,73,0.00,,---,0.12,VWS V15.00,2017-02-25 23:04:00,
2017-02-25 18:09:00,31.9,24.6,29.84,WSW,241,11.0,31.0,74,0.00,,---,0.12,VWS V15.00,2017-02-25 23:09:00,
2017-02-25 18:14:00,31.9,24.6,29.84,West,265,15.0,31.0,74,0.00,,---,0.12,VWS V15.00,2017-02-25 23:14:00,
2017-02-25 18:19:00,31.8,24.5,29.84,WSW,252,3.0,31.0,74,0.00,,---,0.12,VWS V15.00,2017-02-25 23:19:00,
2017-02-25 18:24:00,31.7,25.0,29.85,West,261,11.0,31.0,76,0.00,,---,0.12,VWS V15.00,2017-02-25 23:24:00,
2017-02-25 18:34:00,31.4,25.4,29.85,SW,224,4.0,15.0,78,0.00,,---,0.12,VWS V15.00,2017-02-25 23:34:00,
2017-02-25 18:39:00,31.2,25.5,29.86,WSW,258,6.0,20.0,79,0.00,,---,0.12,VWS V15.00,2017-02-25 23:39:00,
2017-02-25 18:44:00,31.0,25.3,29.86,WSW,255,6.0,20.0,79,0.00,,---,0.12,VWS V15.00,2017-02-25 23:44:00,
2017-02-25 18:49:00,30.9,25.5,29.87,WSW,243,9.0,20.0,80,0.00,,---,0.12,VWS V15.00,2017-02-25 23:49:00,
2017-02-25 18:54:00,30.8,25.1,29.87,WNW,294,9.0,20.0,79,0.00,,---,0.12,VWS V15.00,2017-02-25 23:54:00,
2017-02-25 19:00:00,30.7,25.3,29.88,West,275,6.0,15.0,80,0.00,,---,0.12,VWS V15.00,2017-02-26 00:00:00,
2017-02-25 19:05:00,30.6,25.5,29.88,West,259,6.0,18.0,81,0.00,,---,0.12,VWS V15.00,2017-02-26 00:05:00,
2017-02-25 19:10:00,30.6,25.2,29.88,West,275,9.0,18.0,80,0.00,,---,0.12,VWS V15.00,2017-02-26 00:10:00,
2017-02-25 19:15:00,30.5,24.5,29.89,WSW,253,8.0,19.0,78,0.00,,---,0.12,VWS V15.00,2017-02-26 00:15:00,
2017-02-25 19:20:00,30.5,24.2,29.89,West,259,9.0,20.0,77,0.00,,---,0.12,VWS V15.00,2017-02-26 00:20:00,
2017-02-25 19:25:00,30.5,23.5,29.89,West,265,8.0,20.0,75,0.00,,---,0.12,VWS V15.00,2017-02-26 00:25:00,
2017-02-25 19:30:00,30.5,22.9,29.89,WSW,256,14.0,15.0,73,0.00,,---,0.12,VWS V15.00,2017-02-26 00:30:00,
2017-02-25 19:35:00,30.3,21.7,29.90,WNW,296,9.0,21.0,70,0.00,,---,0.12,VWS V15.00,2017-02-26 00:35:00,
2017-02-25 19:40:00,30.3,21.7,29.90,WSW,250,5.0,21.0,70,0.00,,---,0.12,VWS V15.00,2017-02-26 00:40:00,
2017-02-25 19:45:00,30.3,22.0,29.90,WSW,258,4.0,21.0,71,0.00,,---,0.12,VWS V15.00,2017-02-26 00:45:00,
2017-02-25 19:50:00,30.3,22.4,29.90,WSW,237,16.0,21.0,72,0.00,,---,0.12,VWS V15.00,2017-02-26 00:50:00,
2017-02-25 19:55:00,30.3,22.7,29.91,WSW,246,9.0,22.0,73,0.00,,---,0.12,VWS V15.00,2017-02-26 00:55:00,
2017-02-25 20:00:00,30.2,22.6,29.91,West,267,10.0,25.0,73,0.00,,---,0.12,VWS V15.00,2017-02-26 01:00:00,
2017-02-25 20:05:00,30.1,22.8,29.91,WNW,286,6.0,25.0,74,0.00,,---,0.12,VWS V15.00,2017-02-26 01:05:00,
2017-02-25 20:10:00,30.0,22.7,29.91,West,271,6.0,25.0,74,0.00,,---,0.12,VWS V15.00,2017-02-26 01:10:00,
2017-02-25 20:15:00,29.9,22.6,29.91,West,281,11.0,25.0,74,0.00,,---,0.12,VWS V15.00,2017-02-26 01:15:00,
2017-02-25 20:20:00,29.8,22.5,29.92,NNW,329,5.0,25.0,74,0.00,,---,0.12,VWS V15.00,2017-02-26 01:20:00,